Time;durP1;ratioP1;P1;durP2;ratioP2;P2;SDS_P1;SDS_P2;PMS_P1;PMS_P2;Temp;Humidity;BMP_temperature;BMP_pressure;BME280_temperature;BME280_humidity;BME280_pressure;Samples;Min_cycle;Max_cycle;Signal;HPM_P1;HPM_P2
2023/09/14 00:01:35;;;;;;;19.23;18.23;;;;;;;-141.02;71.69;42956.88;5136738;27;20195;-57
2023/09/14 00:04:02;;;;;;;18.95;18.05;;;;;;;-141.02;71.99;42954.97;5136618;27;20202;-57
2023/09/14 00:06:29;;;;;;;19.08;18.15;;;;;;;-141.02;72.76;42939.59;5136336;27;20231;-57
2023/09/14 00:08:56;;;;;;;19.30;18.30;;;;;;;-141.02;72.28;42972.25;5136173;27;20283;-57
2023/09/14 00:11:25;;;;;;;18.85;17.95;;;;;;;-141.02;72.45;42962.66;5136063;27;20231;-57
2023/09/14 00:13:52;;;;;;;19.25;18.25;;;;;;;-141.02;73.00;42978.00;5136444;27;20199;-57
2023/09/14 00:16:19;;;;;;;19.58;18.58;;;;;;;-141.02;72.42;42985.69;5136365;27;20196;-57
2023/09/14 00:18:45;;;;;;;18.90;18.00;;;;;;;-141.02;72.41;42985.69;5136109;27;20279;-57
2023/09/14 00:21:12;;;;;;;19.08;18.10;;;;;;;-141.02;72.57;42989.53;5135954;27;20287;-57
2023/09/14 00:23:39;;;;;;;19.73;18.73;;;;;;;-141.02;73.21;42974.16;5135956;27;20673;-57
2023/09/14 00:26:06;;;;;;;19.55;18.55;;;;;;;-141.02;74.24;42943.44;5135869;27;20200;-57
2023/09/14 00:28:35;;;;;;;19.80;18.80;;;;;;;-141.02;75.76;42954.97;5136054;27;20279;-57
2023/09/14 00:31:02;;;;;;;19.80;18.80;;;;;;;-141.02;75.97;42958.81;5135775;27;20223;-57
2023/09/14 00:33:29;;;;;;;19.33;18.33;;;;;;;-141.02;77.12;42916.56;5136049;27;20245;-57
2023/09/14 00:35:55;;;;;;;19.48;18.48;;;;;;;-141.02;78.35;42889.69;5136004;27;20188;-57
2023/09/14 00:38:43;;;;;;;18.80;17.90;;;;;;;-141.02;80.18;42841.69;5135935;27;20280;-57
2023/09/14 00:41:10;;;;;;;19.17;18.17;;;;;;;-141.02;81.33;42839.78;5136185;27;20196;-57
2023/09/14 00:43:39;;;;;;;19.33;18.33;;;;;;;-141.02;82.54;42784.09;5135837;27;20229;-57
2023/09/14 00:46:07;;;;;;;19.08;18.13;;;;;;;-141.02;83.61;42759.16;5135569;27;20685;-57
2023/09/14 00:48:35;;;;;;;18.85;17.92;;;;;;;-141.02;84.19;42709.25;5135468;27;20231;-57
2023/09/14 00:51:03;;;;;;;18.50;17.60;;;;;;;-141.02;84.47;42690.03;5134534;27;20231;-57
2023/09/14 00:53:30;;;;;;;18.90;18.00;;;;;;;-141.02;84.49;42682.34;5135677;27;20197;-57
2023/09/14 00:55:58;;;;;;;18.55;17.65;;;;;;;-141.02;84.71;42690.03;5135319;27;20203;-57
2023/09/14 00:58:25;;;;;;;18.92;18.02;;;;;;;-141.02;84.80;42665.09;5135345;27;20196;-57
2023/09/14 01:00:55;;;;;;;18.67;17.77;;;;;;;-141.02;84.98;42640.13;5135525;27;20192;-57
2023/09/14 01:03:23;;;;;;;18.75;17.85;;;;;;;-141.02;85.69;42628.63;5135541;27;20196;-57
2023/09/14 01:05:51;;;;;;;18.02;17.23;;;;;;;-141.02;86.13;42613.25;5134882;27;20228;-57
2023/09/14 01:08:18;;;;;;;18.55;17.65;;;;;;;-141.02;86.02;42609.41;5135440;27;20252;-57
2023/09/14 01:10:45;;;;;;;18.52;17.63;;;;;;;-141.02;86.42;42574.88;5135282;27;20234;-57
2023/09/14 01:13:22;;;;;;;18.27;17.38;;;;;;;-141.02;87.33;42544.16;5135328;27;20194;-57
2023/09/14 01:15:55;;;;;;;18.08;17.20;;;;;;;-141.02;86.95;42538.38;5135341;27;20187;-57
2023/09/14 01:18:29;;;;;;;18.52;17.63;;;;;;;-141.02;87.76;42524.94;5134908;27;20184;-57
2023/09/14 01:21:42;;;;;;;17.83;17.02;;;;;;;-141.02;90.14;42394.41;5135176;27;20241;-57
2023/09/14 01:24:18;;;;;;;18.40;17.50;;;;;;;-141.02;91.69;42298.44;5106308;27;20196;-57
2023/09/14 01:26:47;;;;;;;18.48;17.58;;;;;;;-141.02;92.43;42210.16;5135027;27;20188;-57
2023/09/14 01:29:14;;;;;;;18.70;17.80;;;;;;;-141.02;93.21;42110.34;5134973;27;20203;-57
2023/09/14 01:31:42;;;;;;;18.40;17.60;;;;;;;-141.02;93.72;42064.28;5135062;27;20234;-57
2023/09/14 01:34:09;;;;;;;17.15;16.38;;;;;;;-141.02;93.81;42002.88;5134607;27;20713;-58
2023/09/14 01:36:44;;;;;;;17.20;16.40;;;;;;;-141.02;94.08;41993.28;5134832;27;20286;-57
2023/09/14 01:39:12;;;;;;;17.77;16.98;;;;;;;-141.02;94.96;41935.69;5134522;27;20572;-57
2023/09/14 01:41:41;;;;;;;17.10;16.30;;;;;;;-141.02;95.65;41839.72;5134713;27;20200;-57
2023/09/14 01:44:10;;;;;;;18.05;17.25;;;;;;;-141.02;96.98;41722.66;5134712;27;20204;-57
2023/09/14 01:46:39;;;;;;;17.33;16.60;;;;;;;-141.02;96.92;41665.09;5134829;27;20196;-57
2023/09/14 01:49:06;;;;;;;17.77;16.98;;;;;;;-141.02;97.56;41611.34;5134551;27;20651;-57
2023/09/14 01:51:33;;;;;;;16.67;15.98;;;;;;;-141.02;97.62;41563.38;5134363;27;20226;-57
2023/09/14 01:54:00;;;;;;;16.67;15.98;;;;;;;-141.02;98.20;41482.78;5134166;27;20231;-57
2023/09/14 01:56:27;;;;;;;16.67;15.98;;;;;;;-141.02;98.99;41346.53;5134190;27;20196;-57
2023/09/14 01:58:53;;;;;;;17.15;16.45;;;;;;;-141.02;99.39;41246.75;5134030;27;20195;-57
2023/09/14 02:01:22;;;;;;;16.67;15.98;;;;;;;-141.02;99.41;41166.16;5134315;27;20188;-57
2023/09/14 02:03:49;;;;;;;16.90;16.20;;;;;;;-141.02;98.93;41162.34;5134372;27;20199;-57
2023/09/14 02:06:16;;;;;;;16.77;16.08;;;;;;;-141.02;98.72;41143.16;5133786;27;20228;-57
2023/09/14 02:08:42;;;;;;;16.48;15.77;;;;;;;-141.02;99.16;41123.97;5134401;27;20196;-57
2023/09/14 02:11:11;;;;;;;16.60;15.90;;;;;;;-141.02;99.30;41097.09;5134023;27;20228;-62
2023/09/14 02:13:38;;;;;;;17.27;16.58;;;;;;;-141.02;100.00;41008.84;5133804;27;20196;-57
2023/09/14 02:16:05;;;;;;;17.00;16.30;;;;;;;-141.02;100.00;40966.63;5134046;27;20196;-57
2023/09/14 02:18:33;;;;;;;16.30;15.60;;;;;;;-141.02;100.00;40943.59;5133680;27;20196;-57
2023/09/14 02:21:00;;;;;;;16.35;15.65;;;;;;;-141.02;100.00;40924.41;5133626;27;20199;-57
2023/09/14 02:23:27;;;;;;;17.48;16.77;;;;;;;-141.02;99.88;40932.09;5133599;27;20189;-57
2023/09/14 02:25:54;;;;;;;16.65;15.95;;;;;;;-141.02;100.00;40916.75;5133561;27;20193;-66
2023/09/14 02:28:21;;;;;;;17.50;16.80;;;;;;;-141.02;100.00;40870.69;5133726;27;20200;-57
2023/09/14 02:30:49;;;;;;;16.70;16.00;;;;;;;-141.02;100.00;40886.03;5133412;27;20228;-60
2023/09/14 02:33:15;;;;;;;16.60;15.90;;;;;;;-141.02;100.00;40874.53;5133734;27;20577;-57
2023/09/14 02:35:50;;;;;;;17.17;16.48;;;;;;;-141.02;98.79;40951.28;5133711;27;20203;-66
2023/09/14 02:38:17;;;;;;;16.40;15.70;;;;;;;-141.02;97.95;40985.81;5133750;27;20226;-57
2023/09/14 02:40:44;;;;;;;17.30;16.60;;;;;;;-141.02;97.40;41043.38;5133277;27;20665;-57
2023/09/14 02:43:11;;;;;;;17.20;16.50;;;;;;;-141.02;98.13;41005.00;5133321;27;20278;-57
2023/09/14 02:45:38;;;;;;;16.83;16.13;;;;;;;-141.02;97.42;41039.53;5133223;27;20674;-57
2023/09/14 02:48:06;;;;;;;16.50;15.80;;;;;;;-141.02;96.96;41083.66;5133515;27;20666;-57
2023/09/14 02:50:33;;;;;;;17.38;16.58;;;;;;;-141.02;96.29;41104.78;5133390;27;20242;-57
2023/09/14 02:53:01;;;;;;;16.75;16.05;;;;;;;-141.02;95.65;41154.66;5133397;27;20188;-57
2023/09/14 02:55:28;;;;;;;17.17;16.48;;;;;;;-141.02;95.68;41146.97;5133119;27;20197;-57
2023/09/14 02:57:55;;;;;;;17.30;16.60;;;;;;;-141.02;95.87;41137.38;5133084;27;20600;-57
2023/09/14 03:00:22;;;;;;;17.40;16.65;;;;;;;-141.02;96.00;41166.16;5133040;27;20570;-57
2023/09/14 03:02:49;;;;;;;17.35;16.55;;;;;;;-141.02;95.82;41170.00;5133276;27;20650;-57
2023/09/14 03:05:16;;;;;;;17.23;16.42;;;;;;;-141.02;96.02;41166.16;5132877;27;20230;-60
2023/09/14 03:07:42;;;;;;;16.83;16.08;;;;;;;-141.02;96.68;41139.31;5133311;27;20196;-57
2023/09/14 03:10:11;;;;;;;17.15;16.40;;;;;;;-141.02;97.27;41143.16;5132824;27;20196;-57
2023/09/14 03:12:38;;;;;;;16.75;16.05;;;;;;;-141.02;97.50;41120.13;5133250;27;20228;-57
2023/09/14 03:15:06;;;;;;;17.23;16.52;;;;;;;-141.02;97.48;41139.31;5132424;27;20659;-57
2023/09/14 03:17:33;;;;;;;16.92;16.23;;;;;;;-141.02;96.73;41143.16;5132905;27;20197;-57
2023/09/14 03:20:00;;;;;;;17.58;16.80;;;;;;;-141.02;97.39;41116.28;5133115;27;20195;-57
2023/09/14 03:22:27;;;;;;;17.52;16.73;;;;;;;-141.02;97.96;41104.78;5133162;27;20195;-57
2023/09/14 03:24:54;;;;;;;17.15;16.45;;;;;;;-141.02;98.06;41089.41;5133127;27;20199;-57
2023/09/14 03:27:22;;;;;;;17.05;16.35;;;;;;;-141.02;98.52;41081.75;5132742;27;20659;-57
2023/09/14 03:29:49;;;;;;;17.10;16.40;;;;;;;-141.02;98.92;41081.75;5132727;27;20196;-57
2023/09/14 03:32:16;;;;;;;16.70;16.00;;;;;;;-141.02;99.13;41060.63;5132944;27;20234;-57
2023/09/14 03:34:43;;;;;;;16.73;16.02;;;;;;;-141.02;99.16;41054.88;5132729;27;20198;-57
2023/09/14 03:37:10;;;;;;;16.90;16.20;;;;;;;-141.02;99.48;41033.78;5132694;27;20568;-57
2023/09/14 03:39:37;;;;;;;17.05;16.35;;;;;;;-141.02;99.51;41029.94;5132654;27;20690;-57
2023/09/14 03:42:05;;;;;;;17.40;16.70;;;;;;;-141.02;99.36;41012.66;5132971;27;20192;-57
2023/09/14 03:44:34;;;;;;;17.25;16.55;;;;;;;-141.02;99.98;41012.66;5132531;27;20242;-57
2023/09/14 03:47:01;;;;;;;16.48;15.77;;;;;;;-141.02;100.00;41001.16;5132918;27;20271;-57
2023/09/14 03:49:28;;;;;;;16.75;16.05;;;;;;;-141.02;100.00;41003.06;5132896;27;20196;-57
2023/09/14 03:51:55;;;;;;;17.10;16.40;;;;;;;-141.02;100.00;41045.28;5132758;27;20224;-57
2023/09/14 03:54:22;;;;;;;16.85;16.15;;;;;;;-141.02;99.86;41056.81;5133063;27;20276;-57
2023/09/14 03:56:49;;;;;;;16.48;15.77;;;;;;;-141.02;100.00;41108.59;5132461;27;20287;-57
2023/09/14 03:59:16;;;;;;;16.88;16.17;;;;;;;-141.02;100.00;41200.72;5132830;27;20193;-57
2023/09/14 04:01:44;;;;;;;17.02;16.33;;;;;;;-141.02;100.00;41227.56;5132740;27;20246;-57
2023/09/14 04:04:11;;;;;;;16.85;16.15;;;;;;;-141.02;100.00;41223.72;5132425;27;20192;-57
2023/09/14 04:06:38;;;;;;;16.83;16.13;;;;;;;-141.02;100.00;41221.81;5132504;27;20237;-57
2023/09/14 04:09:06;;;;;;;16.55;15.85;;;;;;;-141.02;100.00;41229.50;5132374;27;20663;-57
2023/09/14 04:11:33;;;;;;;16.70;16.00;;;;;;;-141.02;100.00;41250.59;5132491;27;20224;-57
2023/09/14 04:14:02;;;;;;;17.02;16.33;;;;;;;-141.02;100.00;41288.97;5132326;27;20283;-57
2023/09/14 04:16:30;;;;;;;16.67;15.98;;;;;;;-141.02;100.00;41296.66;5132340;27;20287;-57
2023/09/14 04:19:00;;;;;;;16.23;15.52;;;;;;;-141.02;100.00;41312.00;5132271;27;20192;-57
2023/09/14 04:21:28;;;;;;;16.60;15.90;;;;;;;-141.02;100.00;41319.69;5132905;27;20185;-57
2023/09/14 04:23:55;;;;;;;15.73;15.13;;;;;;;-141.02;100.00;41331.19;5132301;27;20196;-57
2023/09/14 04:26:22;;;;;;;16.80;16.20;;;;;;;-141.02;100.00;41359.97;5133806;27;20203;-57
2023/09/14 04:28:49;;;;;;;15.77;15.18;;;;;;;-141.02;100.00;41354.22;5135966;27;20265;-57
2023/09/14 04:31:15;;;;;;;16.90;16.20;;;;;;;-141.02;100.00;41404.09;5135999;27;20224;-57
2023/09/14 04:33:43;;;;;;;16.77;16.08;;;;;;;-141.02;100.00;41407.94;5136062;27;20192;-57
2023/09/14 04:36:11;;;;;;;16.63;15.93;;;;;;;-141.02;100.00;41425.22;5136042;27;20257;-57
2023/09/14 04:38:38;;;;;;;16.95;16.25;;;;;;;-141.02;100.00;41450.16;5135641;27;20646;-57
2023/09/14 04:41:05;;;;;;;16.20;15.55;;;;;;;-141.02;100.00;41480.88;5135698;27;20288;-57
2023/09/14 04:43:32;;;;;;;17.05;16.35;;;;;;;-141.02;100.00;41480.88;5135881;27;20276;-57
2023/09/14 04:46:01;;;;;;;16.60;15.90;;;;;;;-141.02;100.00;41507.72;5135842;27;20202;-57
2023/09/14 04:48:28;;;;;;;16.70;16.00;;;;;;;-141.02;100.00;41549.94;5135766;27;20188;-57
2023/09/14 04:50:57;;;;;;;17.27;16.58;;;;;;;-141.02;99.74;41576.81;5135679;27;20228;-57
2023/09/14 04:53:26;;;;;;;16.98;16.27;;;;;;;-141.02;99.74;41615.19;5135409;27;20193;-57
2023/09/14 04:55:53;;;;;;;17.27;16.58;;;;;;;-141.02;99.13;41653.59;5135668;27;20196;-57
2023/09/14 04:58:20;;;;;;;17.05;16.35;;;;;;;-141.02;97.96;41672.78;5135364;27;20196;-57
2023/09/14 05:00:48;;;;;;;17.00;16.30;;;;;;;-141.02;97.69;41703.47;5135510;27;20198;-57
2023/09/14 05:03:15;;;;;;;17.17;16.48;;;;;;;-141.02;96.07;41755.28;5135543;27;20197;-57
2023/09/14 05:05:42;;;;;;;17.80;17.00;;;;;;;-141.02;96.05;41784.06;5135109;27;20228;-57
2023/09/14 05:08:09;;;;;;;17.50;16.80;;;;;;;-141.02;95.07;41810.94;5135384;27;20192;-57
2023/09/14 05:10:38;;;;;;;17.13;16.42;;;;;;;-141.02;94.49;41810.94;5134994;27;20192;-57
2023/09/14 05:13:05;;;;;;;17.70;16.90;;;;;;;-141.02;93.42;41872.38;5134957;27;20579;-57
2023/09/14 05:15:32;;;;;;;17.40;16.70;;;;;;;-141.02;93.45;41857.00;5135288;27;20201;-57
2023/09/14 05:17:58;;;;;;;17.63;16.90;;;;;;;-141.02;92.49;41883.88;5135204;27;20192;-57
2023/09/14 05:20:25;;;;;;;18.08;17.27;;;;;;;-141.02;91.81;41912.66;5135159;27;20200;-57
2023/09/14 05:22:52;;;;;;;18.15;17.35;;;;;;;-141.02;91.94;41929.94;5135405;27;20192;-57
2023/09/14 05:25:20;;;;;;;17.17;16.48;;;;;;;-141.02;92.09;41956.81;5135035;27;20200;-57
2023/09/14 05:27:48;;;;;;;18.05;17.25;;;;;;;-141.02;90.65;41991.34;5134717;27;20731;-57
2023/09/14 05:30:15;;;;;;;17.40;16.60;;;;;;;-141.02;90.05;42006.72;5135297;27;20573;-57
2023/09/14 05:32:43;;;;;;;17.65;16.85;;;;;;;-141.02;90.07;42018.22;5134508;27;20793;-58
2023/09/14 05:35:11;;;;;;;17.90;17.10;;;;;;;-141.02;89.21;42037.41;5134627;27;20734;-57
2023/09/14 05:37:37;;;;;;;17.98;17.17;;;;;;;-141.02;86.72;42104.59;5134423;27;20227;-57
2023/09/14 05:40:11;;;;;;;18.05;17.25;;;;;;;-141.02;86.10;42125.69;5135079;27;20193;-57
2023/09/14 05:42:38;;;;;;;17.73;16.92;;;;;;;-141.02;85.56;42127.63;5134441;27;20189;-57
2023/09/14 05:45:09;;;;;;;17.85;17.05;;;;;;;-141.02;84.22;42200.56;5134690;27;20196;-57
2023/09/14 05:47:36;;;;;;;17.95;17.15;;;;;;;-141.02;88.34;42106.50;5134582;27;20199;-57
2023/09/14 05:50:03;;;;;;;18.08;17.27;;;;;;;-141.02;87.57;42125.69;5134638;27;20199;-57
2023/09/14 05:52:31;;;;;;;17.52;16.83;;;;;;;-141.02;86.11;42127.63;5134439;27;20236;-57
2023/09/14 05:54:58;;;;;;;18.27;17.48;;;;;;;-141.02;84.20;42181.38;5134162;27;20196;-57
2023/09/14 05:57:25;;;;;;;18.20;17.40;;;;;;;-141.02;84.88;42175.59;5134444;27;20200;-57
2023/09/14 05:59:52;;;;;;;18.65;17.85;;;;;;;-141.02;81.80;42298.44;5134380;27;20269;-57
2023/09/14 06:02:21;;;;;;;18.38;17.58;;;;;;;-141.02;80.90;42323.41;5134417;27;20204;-57
2023/09/14 06:04:48;;;;;;;18.40;17.60;;;;;;;-141.02;82.22;42286.94;5133831;27;20677;-57
2023/09/14 06:07:14;;;;;;;18.25;17.45;;;;;;;-141.02;82.23;42298.44;5134306;27;20245;-57
2023/09/14 06:09:42;;;;;;;17.77;16.98;;;;;;;-141.02;80.93;42298.44;5133872;27;20196;-57
2023/09/14 06:12:08;;;;;;;18.38;17.58;;;;;;;-141.02;80.39;42363.72;5134309;27;20228;-57
2023/09/14 06:14:37;;;;;;;18.38;17.58;;;;;;;-141.02;79.00;42413.63;5134176;27;20220;-57
2023/09/14 06:17:04;;;;;;;18.52;17.73;;;;;;;-141.02;77.15;42423.22;5134060;27;20275;-57
2023/09/14 06:19:32;;;;;;;18.30;17.50;;;;;;;-141.02;79.37;42402.09;5134029;27;20219;-57
2023/09/14 06:22:00;;;;;;;18.23;17.42;;;;;;;-141.02;79.29;42394.41;5133613;27;20679;-57
2023/09/14 06:24:27;;;;;;;17.73;16.92;;;;;;;-141.02;80.06;42369.47;5133924;27;20272;-57
2023/09/14 06:26:56;;;;;;;17.52;16.73;;;;;;;-141.02;79.58;42427.06;5133594;27;20745;-57
2023/09/14 06:29:22;;;;;;;17.60;16.80;;;;;;;-141.02;80.13;42432.81;5133554;27;20650;-57
2023/09/14 06:31:50;;;;;;;17.65;16.85;;;;;;;-141.02;80.39;42428.97;5133797;27;20224;-57
2023/09/14 06:34:17;;;;;;;18.05;17.25;;;;;;;-141.02;81.57;42407.84;5133718;27;20200;-57
2023/09/14 06:36:46;;;;;;;18.27;17.48;;;;;;;-141.02;79.18;42452.00;5133438;27;20197;-57
2023/09/14 06:39:14;;;;;;;18.27;17.48;;;;;;;-141.02;77.69;42471.19;5133696;27;20275;-57
2023/09/14 06:41:41;;;;;;;18.35;17.55;;;;;;;-141.02;77.19;42498.06;5133701;27;20196;-57
2023/09/14 06:44:08;;;;;;;18.73;17.90;;;;;;;-141.02;78.40;42476.97;5134177;27;20194;-57
2023/09/14 06:46:35;;;;;;;18.70;17.83;;;;;;;-141.02;76.68;42484.63;5133513;27;20193;-57
2023/09/14 06:49:02;;;;;;;18.65;17.75;;;;;;;-141.02;76.43;42540.31;5132885;27;20283;-57
2023/09/14 06:51:29;;;;;;;18.20;17.40;;;;;;;-141.02;76.14;42505.75;5133497;27;20256;-57
2023/09/14 06:53:57;;;;;;;18.77;17.88;;;;;;;-141.02;75.66;42532.63;5133146;27;20195;-57
2023/09/14 06:56:24;;;;;;;18.60;17.70;;;;;;;-141.02;74.78;42565.25;5133464;27;20188;-57
2023/09/14 06:58:51;;;;;;;17.85;17.05;;;;;;;-141.02;73.35;42609.41;5133076;27;20291;-57
2023/09/14 07:01:19;;;;;;;18.60;17.70;;;;;;;-141.02;73.06;42609.41;5133685;27;20188;-57
2023/09/14 07:03:46;;;;;;;18.42;17.52;;;;;;;-141.02;72.32;42620.94;5133149;27;20241;-57
2023/09/14 07:06:13;;;;;;;18.48;17.58;;;;;;;-141.02;72.47;42605.56;5133097;27;20239;-57
2023/09/14 07:08:41;;;;;;;18.25;17.35;;;;;;;-141.02;72.54;42620.94;5133263;27;20230;-57
2023/09/14 07:11:09;;;;;;;18.30;17.40;;;;;;;-141.02;71.66;42628.63;5133329;27;20192;-57
2023/09/14 07:13:36;;;;;;;18.35;17.45;;;;;;;-141.02;71.28;42613.25;5133075;27;20785;-57
2023/09/14 07:16:04;;;;;;;17.83;17.02;;;;;;;-141.02;70.59;42659.31;5133284;27;20192;-66
2023/09/14 07:18:33;;;;;;;17.90;17.10;;;;;;;-141.02;71.17;42659.31;5133161;27;20199;-57
2023/09/14 07:21:02;;;;;;;17.88;17.08;;;;;;;-141.02;70.63;42672.75;5132843;27;20192;-57
2023/09/14 07:23:29;;;;;;;17.95;17.15;;;;;;;-141.02;69.86;42676.59;5133480;27;20196;-57
2023/09/14 07:25:56;;;;;;;17.95;17.15;;;;;;;-141.02;69.60;42701.56;5133124;27;20304;-57
2023/09/14 07:28:24;;;;;;;18.17;17.27;;;;;;;-141.02;69.32;42736.13;5132754;27;20203;-57
2023/09/14 07:30:52;;;;;;;17.80;17.00;;;;;;;-141.02;69.11;42718.84;5132764;27;20197;-57
2023/09/14 07:33:20;;;;;;;17.98;17.08;;;;;;;-141.02;67.80;42734.19;5132910;27;20326;-57
2023/09/14 07:35:50;;;;;;;17.92;17.02;;;;;;;-141.02;66.37;42784.09;5133599;27;20194;-57
2023/09/14 07:38:17;;;;;;;18.52;17.63;;;;;;;-141.02;65.99;42837.84;5133025;27;20196;-57
2023/09/14 07:40:43;;;;;;;18.05;17.15;;;;;;;-141.02;66.83;42851.28;5132945;27;20198;-57
2023/09/14 07:43:11;;;;;;;17.83;16.92;;;;;;;-141.02;65.02;42883.94;5132651;27;20640;-57
2023/09/14 07:45:39;;;;;;;17.90;17.00;;;;;;;-141.02;64.81;42883.94;5132569;27;20195;-57
2023/09/14 07:48:08;;;;;;;18.38;17.48;;;;;;;-141.02;64.59;42916.56;5132602;27;20291;-57
2023/09/14 07:50:39;;;;;;;17.98;17.08;;;;;;;-141.02;62.74;42924.25;5132540;27;20689;-57
2023/09/14 07:53:06;;;;;;;17.98;17.08;;;;;;;-141.02;61.98;42912.72;5132579;27;20208;-57
2023/09/14 07:55:33;;;;;;;17.00;16.20;;;;;;;-141.02;60.79;42908.88;5132495;27;20193;-57
2023/09/14 07:58:00;;;;;;;17.83;16.92;;;;;;;-141.02;61.07;42931.94;5132474;27;20192;-57
2023/09/14 08:00:27;;;;;;;17.42;16.52;;;;;;;-141.02;61.70;42954.97;5134360;27;20192;-58
2023/09/14 08:02:56;;;;;;;17.38;16.48;;;;;;;-141.02;61.43;42951.13;5136448;27;20721;-57
2023/09/14 08:05:23;;;;;;;17.05;16.25;;;;;;;-141.02;62.48;42983.75;5136136;27;20235;-57
2023/09/14 08:07:50;;;;;;;17.08;16.27;;;;;;;-141.02;63.58;43008.72;5136298;27;20199;-57
2023/09/14 08:10:17;;;;;;;16.90;16.10;;;;;;;-141.02;62.72;43026.00;5136609;27;20251;-58
2023/09/14 08:12:43;;;;;;;16.95;16.15;;;;;;;-141.02;62.66;43054.78;5136464;27;20277;-57
2023/09/14 08:15:12;;;;;;;17.48;16.58;;;;;;;-141.02;61.75;43081.66;5136475;27;20210;-57
2023/09/14 08:17:39;;;;;;;17.20;16.35;;;;;;;-141.02;61.56;43120.06;5136487;27;20253;-57
2023/09/14 08:20:09;;;;;;;17.95;17.05;;;;;;;-141.02;61.00;43125.84;5136358;27;20279;-57
2023/09/14 08:22:36;;;;;;;16.95;16.15;;;;;;;-141.02;60.44;43085.50;5136439;27;20253;-57
2023/09/14 08:25:06;;;;;;;17.08;16.27;;;;;;;-141.02;58.76;43158.47;5136276;27;20279;-57
2023/09/14 08:27:34;;;;;;;17.58;16.67;;;;;;;-141.02;56.79;43146.94;5135938;27;20197;-57
2023/09/14 08:30:02;;;;;;;17.88;16.98;;;;;;;-141.02;56.65;43158.47;5136216;27;20257;-57
2023/09/14 08:32:29;;;;;;;17.52;16.63;;;;;;;-141.02;55.78;43139.28;5136095;27;20235;-57
2023/09/14 08:34:58;;;;;;;17.35;16.45;;;;;;;-141.02;56.19;43158.47;5136116;27;20193;-58
2023/09/14 08:37:26;;;;;;;17.45;16.55;;;;;;;-141.02;56.35;43168.06;5135696;27;20200;-58
2023/09/14 08:39:53;;;;;;;16.85;16.05;;;;;;;-141.02;56.30;43145.03;5136029;27;20276;-58
2023/09/14 08:42:24;;;;;;;17.17;16.27;;;;;;;-141.02;57.29;43200.72;5135946;27;20218;-58
2023/09/14 08:44:53;;;;;;;17.80;16.90;;;;;;;-141.02;57.32;43179.59;5135708;27;20220;-57
2023/09/14 08:47:22;;;;;;;16.98;16.17;;;;;;;-141.02;57.19;43196.88;5135571;27;20192;-59
2023/09/14 08:49:51;;;;;;;17.25;16.48;;;;;;;-141.02;57.26;43204.56;5135791;27;20204;-57
2023/09/14 08:52:19;;;;;;;17.02;16.23;;;;;;;-141.02;57.14;43204.56;5135778;27;20258;-57
2023/09/14 08:54:49;;;;;;;16.98;16.15;;;;;;;-141.02;57.08;43219.91;5135740;27;20580;-57
2023/09/14 08:57:16;;;;;;;16.88;16.08;;;;;;;-141.02;56.21;43264.06;5136473;27;20189;-57
2023/09/14 08:59:43;;;;;;;16.95;16.15;;;;;;;-141.02;56.81;43248.72;5135560;27;20214;-57
2023/09/14 09:02:13;;;;;;;17.13;16.23;;;;;;;-141.02;56.48;43193.03;5135630;27;20193;-57
2023/09/14 09:04:40;;;;;;;17.60;16.70;;;;;;;-141.02;55.54;43258.31;5134977;27;20193;-58
2023/09/14 09:07:08;;;;;;;16.95;16.15;;;;;;;-141.02;55.72;43235.28;5135853;27;20249;-57
2023/09/14 09:09:36;;;;;;;17.15;16.25;;;;;;;-141.02;56.42;43269.81;5135681;27;20197;-57
2023/09/14 09:12:05;;;;;;;17.05;16.15;;;;;;;-141.02;56.33;43248.72;5134353;27;20670;-57
2023/09/14 09:14:32;;;;;;;17.17;16.27;;;;;;;-141.02;55.88;43262.16;5135288;27;20235;-58
2023/09/14 09:16:59;;;;;;;17.25;16.35;;;;;;;-141.02;55.22;43281.34;5135174;27;20196;-57
2023/09/14 09:19:28;;;;;;;17.08;16.17;;;;;;;-141.02;54.53;43256.38;5135260;27;20192;-57
2023/09/14 09:21:55;;;;;;;17.17;16.27;;;;;;;-141.02;54.78;43302.47;5134823;27;20207;-57
2023/09/14 09:24:28;;;;;;;17.23;16.33;;;;;;;-141.02;54.39;43325.50;5134877;27;20231;-57
2023/09/14 09:26:56;;;;;;;17.13;16.23;;;;;;;-141.02;55.53;43333.19;5135120;27;20223;-58
2023/09/14 09:29:24;;;;;;;16.90;16.00;;;;;;;-141.02;55.20;43287.09;5135231;27;20200;-58
2023/09/14 09:31:51;;;;;;;17.08;16.17;;;;;;;-141.02;53.36;43331.28;5134703;27;20193;-58
2023/09/14 09:34:23;;;;;;;17.17;16.27;;;;;;;-141.02;53.65;43362.00;5134519;27;20224;-58
2023/09/14 09:36:55;;;;;;;17.05;16.15;;;;;;;-141.02;54.60;43415.75;5134669;27;20192;-57
2023/09/14 09:39:22;;;;;;;17.05;16.17;;;;;;;-141.02;54.91;43411.91;5134878;27;20220;-58
2023/09/14 09:41:49;;;;;;;16.65;15.85;;;;;;;-141.02;54.12;43431.13;5134789;27;20217;-57
2023/09/14 09:44:18;;;;;;;16.70;15.90;;;;;;;-141.02;53.20;43408.06;5134718;27;20284;-57
2023/09/14 09:46:46;;;;;;;17.17;16.38;;;;;;;-141.02;52.93;43461.84;5134377;27;20228;-58
2023/09/14 09:49:18;;;;;;;17.10;16.23;;;;;;;-141.02;53.49;43461.84;5134449;27;20193;-57
2023/09/14 09:51:46;;;;;;;17.15;16.25;;;;;;;-141.02;53.13;43461.84;5134574;27;20192;-57
2023/09/14 09:54:12;;;;;;;17.00;16.20;;;;;;;-141.02;52.79;43484.88;5134212;27;20227;-57
2023/09/14 09:56:40;;;;;;;16.80;16.00;;;;;;;-141.02;52.75;43481.03;5134160;27;20192;-58
2023/09/14 09:59:13;;;;;;;17.05;16.25;;;;;;;-141.02;52.57;43469.50;5134502;27;20572;-58
2023/09/14 10:01:41;;;;;;;17.05;16.25;;;;;;;-141.02;52.27;43481.03;5134128;27;20654;-57
2023/09/14 10:04:10;;;;;;;16.95;16.15;;;;;;;-141.02;51.03;43490.63;5134040;27;20210;-58
2023/09/14 10:06:38;;;;;;;17.25;16.35;;;;;;;-141.02;50.50;43461.84;5133898;27;20263;-58
2023/09/14 10:09:09;;;;;;;17.27;16.38;;;;;;;-141.02;50.77;43527.13;5134307;27;20249;-58
2023/09/14 10:11:36;;;;;;;17.45;16.55;;;;;;;-141.02;50.24;43548.25;5134128;27;20185;-58
2023/09/14 10:14:05;;;;;;;17.23;16.42;;;;;;;-141.02;50.17;43607.75;5133738;27;20603;-58
2023/09/14 10:16:38;;;;;;;17.10;16.30;;;;;;;-141.02;50.45;43506.00;5133844;27;20283;-58
2023/09/14 10:19:07;;;;;;;16.90;16.10;;;;;;;-141.02;50.40;43467.59;5133973;27;20642;-58
2023/09/14 10:21:37;;;;;;;17.30;16.40;;;;;;;-141.02;51.28;43458.00;5134077;27;20219;-58
2023/09/14 10:24:06;;;;;;;16.75;15.95;;;;;;;-141.02;50.93;43552.09;5133567;27;20215;-58
2023/09/14 10:26:36;;;;;;;16.83;16.02;;;;;;;-141.02;51.28;43484.88;5133649;27;20192;-57
2023/09/14 10:29:07;;;;;;;17.17;16.30;;;;;;;-141.02;50.38;43542.47;5133562;27;20204;-57
2023/09/14 10:31:35;;;;;;;16.83;16.02;;;;;;;-141.02;49.68;43626.97;5133536;27;20249;-57
2023/09/14 10:34:03;;;;;;;16.83;16.02;;;;;;;-141.02;49.81;43632.72;5133431;27;20748;-57
2023/09/14 10:36:32;;;;;;;16.77;15.98;;;;;;;-141.02;50.63;43619.28;5133484;27;20651;-58
2023/09/14 10:39:01;;;;;;;16.55;15.75;;;;;;;-141.02;50.32;43530.97;5133765;27;20192;-57
2023/09/14 10:41:28;;;;;;;16.80;16.00;;;;;;;-141.02;50.30;43561.69;5133340;27;20243;-57
2023/09/14 10:43:55;;;;;;;16.63;15.82;;;;;;;-141.02;49.62;43554.00;5133593;27;20284;-57
2023/09/14 10:46:27;;;;;;;16.60;15.80;;;;;;;-141.02;49.27;43603.94;5133833;27;20200;-58
2023/09/14 10:48:56;;;;;;;16.50;15.70;;;;;;;-141.02;49.99;43598.16;5133307;27;20220;-57
2023/09/14 10:51:24;;;;;;;16.45;15.65;;;;;;;-141.02;49.39;43596.25;5133170;27;20227;-58
2023/09/14 10:53:51;;;;;;;16.58;15.77;;;;;;;-141.02;49.17;43650.00;5133439;27;20580;-58
2023/09/14 10:56:25;;;;;;;16.60;15.80;;;;;;;-141.02;48.24;43555.91;5133819;27;20245;-58
2023/09/14 10:58:54;;;;;;;16.38;15.57;;;;;;;-141.02;49.01;43607.75;5133631;27;20188;-57
2023/09/14 11:01:25;;;;;;;16.20;15.40;;;;;;;-141.02;50.45;43611.59;5133088;27;20192;-57
2023/09/14 11:04:10;;;;;;;16.45;15.65;;;;;;;-141.02;50.25;43619.28;5133058;27;20192;-58